sensor_id;sensor_type;location;lat;lon;timestamp;P1;durP1;ratioP1;P2;durP2;ratioP2
44452;SDS011;30155;52.164;21.236;2023-02-28T00:04:00;44.50;;;20.70;;
44452;SDS011;30155;52.164;21.236;2023-02-28T00:08:52;23.60;;;12.70;;
44452;SDS011;30155;52.164;21.236;2023-02-28T00:13:46;20.60;;;11.60;;
44452;SDS011;30155;52.164;21.236;2023-02-28T00:18:39;35.20;;;16.30;;
44452;SDS011;30155;52.164;21.236;2023-02-28T00:23:32;30.30;;;17.60;;
44452;SDS011;30155;52.164;21.236;2023-02-28T00:28:25;36.80;;;18.00;;
44452;SDS011;30155;52.164;21.236;2023-02-28T00:33:18;54.30;;;28.80;;
44452;SDS011;30155;52.164;21.236;2023-02-28T00:38:14;37.60;;;19.60;;
44452;SDS011;30155;52.164;21.236;2023-02-28T00:43:08;30.60;;;16.20;;
44452;SDS011;30155;52.164;21.236;2023-02-28T00:48:01;23.10;;;13.70;;
44452;SDS011;30155;52.164;21.236;2023-02-28T00:52:53;27.40;;;14.10;;
44452;SDS011;30155;52.164;21.236;2023-02-28T00:57:46;24.30;;;14.30;;
44452;SDS011;30155;52.164;21.236;2023-02-28T01:02:39;23.70;;;12.20;;
44452;SDS011;30155;52.164;21.236;2023-02-28T01:07:31;35.80;;;18.60;;
44452;SDS011;30155;52.164;21.236;2023-02-28T01:12:24;40.10;;;19.90;;
44452;SDS011;30155;52.164;21.236;2023-02-28T01:17:19;41.10;;;21.30;;
44452;SDS011;30155;52.164;21.236;2023-02-28T01:22:12;46.40;;;22.80;;
44452;SDS011;30155;52.164;21.236;2023-02-28T01:27:06;43.10;;;22.50;;
44452;SDS011;30155;52.164;21.236;2023-02-28T01:32:01;44.70;;;22.30;;
44452;SDS011;30155;52.164;21.236;2023-02-28T01:36:53;37.10;;;20.80;;
44452;SDS011;30155;52.164;21.236;2023-02-28T01:41:46;23.70;;;15.00;;
44452;SDS011;30155;52.164;21.236;2023-02-28T01:46:39;22.60;;;14.10;;
44452;SDS011;30155;52.164;21.236;2023-02-28T01:51:42;35.70;;;20.50;;
44452;SDS011;30155;52.164;21.236;2023-02-28T01:56:44;41.50;;;19.80;;
44452;SDS011;30155;52.164;21.236;2023-02-28T02:01:45;35.90;;;20.00;;
44452;SDS011;30155;52.164;21.236;2023-02-28T02:06:40;36.00;;;19.30;;
44452;SDS011;30155;52.164;21.236;2023-02-28T02:11:36;33.20;;;16.70;;
44452;SDS011;30155;52.164;21.236;2023-02-28T02:37:33;17.90;;;10.40;;
44452;SDS011;30155;52.164;21.236;2023-02-28T02:47:34;21.00;;;11.50;;
44452;SDS011;30155;52.164;21.236;2023-02-28T02:52:34;17.40;;;10.00;;
44452;SDS011;30155;52.164;21.236;2023-02-28T02:57:45;19.20;;;10.40;;
44452;SDS011;30155;52.164;21.236;2023-02-28T03:02:42;18.00;;;10.60;;
44452;SDS011;30155;52.164;21.236;2023-02-28T03:07:38;19.00;;;11.00;;
44452;SDS011;30155;52.164;21.236;2023-02-28T03:12:41;14.40;;;8.50;;
44452;SDS011;30155;52.164;21.236;2023-02-28T03:23:06;13.40;;;8.60;;
44452;SDS011;30155;52.164;21.236;2023-02-28T03:28:07;14.50;;;6.90;;
44452;SDS011;30155;52.164;21.236;2023-02-28T03:38:10;14.90;;;9.20;;
44452;SDS011;30155;52.164;21.236;2023-02-28T03:43:09;16.60;;;8.80;;
44452;SDS011;30155;52.164;21.236;2023-02-28T03:53:31;18.80;;;10.70;;
44452;SDS011;30155;52.164;21.236;2023-02-28T03:58:30;22.80;;;11.70;;
44452;SDS011;30155;52.164;21.236;2023-02-28T04:03:36;22.50;;;10.50;;
44452;SDS011;30155;52.164;21.236;2023-02-28T04:08:30;22.70;;;11.20;;
44452;SDS011;30155;52.164;21.236;2023-02-28T04:13:23;21.00;;;11.70;;
44452;SDS011;30155;52.164;21.236;2023-02-28T04:18:16;24.10;;;11.40;;
44452;SDS011;30155;52.164;21.236;2023-02-28T04:23:09;19.10;;;13.10;;
44452;SDS011;30155;52.164;21.236;2023-02-28T04:28:01;21.40;;;12.50;;
44452;SDS011;30155;52.164;21.236;2023-02-28T04:32:54;27.50;;;11.20;;
44452;SDS011;30155;52.164;21.236;2023-02-28T04:37:47;26.60;;;13.40;;
44452;SDS011;30155;52.164;21.236;2023-02-28T04:42:39;22.60;;;13.30;;
44452;SDS011;30155;52.164;21.236;2023-02-28T04:47:32;27.70;;;14.10;;
44452;SDS011;30155;52.164;21.236;2023-02-28T04:52:32;26.80;;;13.20;;
44452;SDS011;30155;52.164;21.236;2023-02-28T04:57:25;28.40;;;13.60;;
44452;SDS011;30155;52.164;21.236;2023-02-28T05:02:18;26.20;;;14.90;;
44452;SDS011;30155;52.164;21.236;2023-02-28T05:07:12;36.50;;;16.20;;
44452;SDS011;30155;52.164;21.236;2023-02-28T05:12:05;30.10;;;15.40;;
44452;SDS011;30155;52.164;21.236;2023-02-28T05:16:58;27.70;;;15.40;;
44452;SDS011;30155;52.164;21.236;2023-02-28T05:21:52;28.50;;;15.50;;
44452;SDS011;30155;52.164;21.236;2023-02-28T05:26:48;31.50;;;16.00;;
44452;SDS011;30155;52.164;21.236;2023-02-28T05:31:44;25.80;;;14.20;;
44452;SDS011;30155;52.164;21.236;2023-02-28T05:36:37;33.30;;;17.30;;
44452;SDS011;30155;52.164;21.236;2023-02-28T05:41:31;30.80;;;15.60;;
44452;SDS011;30155;52.164;21.236;2023-02-28T05:46:26;32.30;;;16.60;;
44452;SDS011;30155;52.164;21.236;2023-02-28T05:51:19;32.50;;;16.10;;
44452;SDS011;30155;52.164;21.236;2023-02-28T05:56:13;38.10;;;20.40;;
44452;SDS011;30155;52.164;21.236;2023-02-28T06:01:24;38.70;;;20.80;;
44452;SDS011;30155;52.164;21.236;2023-02-28T06:06:27;39.80;;;20.20;;
44452;SDS011;30155;52.164;21.236;2023-02-28T06:11:21;41.70;;;21.60;;
44452;SDS011;30155;52.164;21.236;2023-02-28T06:16:19;48.50;;;22.90;;
44452;SDS011;30155;52.164;21.236;2023-02-28T06:21:12;45.70;;;22.30;;
44452;SDS011;30155;52.164;21.236;2023-02-28T06:26:05;39.40;;;21.10;;
44452;SDS011;30155;52.164;21.236;2023-02-28T06:30:59;40.20;;;20.50;;
44452;SDS011;30155;52.164;21.236;2023-02-28T06:35:52;38.70;;;20.50;;
44452;SDS011;30155;52.164;21.236;2023-02-28T06:40:51;38.40;;;21.80;;
44452;SDS011;30155;52.164;21.236;2023-02-28T06:45:46;42.40;;;20.80;;
44452;SDS011;30155;52.164;21.236;2023-02-28T06:50:39;43.80;;;21.40;;
44452;SDS011;30155;52.164;21.236;2023-02-28T06:55:32;47.90;;;24.00;;
44452;SDS011;30155;52.164;21.236;2023-02-28T07:00:24;41.80;;;23.30;;
44452;SDS011;30155;52.164;21.236;2023-02-28T07:05:17;42.10;;;22.50;;
44452;SDS011;30155;52.164;21.236;2023-02-28T07:10:10;37.20;;;21.30;;
44452;SDS011;30155;52.164;21.236;2023-02-28T07:15:05;37.70;;;22.70;;
44452;SDS011;30155;52.164;21.236;2023-02-28T07:19:58;32.70;;;18.30;;
44452;SDS011;30155;52.164;21.236;2023-02-28T07:24:51;30.40;;;18.10;;
44452;SDS011;30155;52.164;21.236;2023-02-28T07:29:44;27.10;;;16.60;;
44452;SDS011;30155;52.164;21.236;2023-02-28T07:34:36;24.30;;;14.50;;
44452;SDS011;30155;52.164;21.236;2023-02-28T07:39:29;26.50;;;15.40;;
44452;SDS011;30155;52.164;21.236;2023-02-28T07:44:22;26.50;;;14.60;;
44452;SDS011;30155;52.164;21.236;2023-02-28T07:49:14;28.70;;;15.80;;
44452;SDS011;30155;52.164;21.236;2023-02-28T07:54:07;21.30;;;12.30;;
44452;SDS011;30155;52.164;21.236;2023-02-28T07:59:00;17.00;;;10.10;;
44452;SDS011;30155;52.164;21.236;2023-02-28T08:03:53;8.90;;;6.30;;
44452;SDS011;30155;52.164;21.236;2023-02-28T08:08:46;8.50;;;6.70;;
44452;SDS011;30155;52.164;21.236;2023-02-28T08:13:39;6.80;;;5.70;;
44452;SDS011;30155;52.164;21.236;2023-02-28T08:18:33;11.20;;;6.10;;
44452;SDS011;30155;52.164;21.236;2023-02-28T08:23:26;10.20;;;6.90;;
44452;SDS011;30155;52.164;21.236;2023-02-28T08:28:19;7.80;;;6.60;;
44452;SDS011;30155;52.164;21.236;2023-02-28T08:33:12;10.80;;;7.00;;
44452;SDS011;30155;52.164;21.236;2023-02-28T08:38:05;6.50;;;5.70;;
44452;SDS011;30155;52.164;21.236;2023-02-28T08:42:57;9.40;;;6.90;;
44452;SDS011;30155;52.164;21.236;2023-02-28T08:47:50;9.30;;;7.00;;
44452;SDS011;30155;52.164;21.236;2023-02-28T08:52:43;9.00;;;6.80;;
44452;SDS011;30155;52.164;21.236;2023-02-28T08:57:36;8.40;;;6.80;;
44452;SDS011;30155;52.164;21.236;2023-02-28T09:02:32;9.90;;;7.50;;
44452;SDS011;30155;52.164;21.236;2023-02-28T09:07:26;10.20;;;7.70;;
44452;SDS011;30155;52.164;21.236;2023-02-28T09:12:19;10.50;;;7.40;;
44452;SDS011;30155;52.164;21.236;2023-02-28T09:17:13;14.20;;;8.00;;
44452;SDS011;30155;52.164;21.236;2023-02-28T09:22:06;12.50;;;7.60;;
44452;SDS011;30155;52.164;21.236;2023-02-28T09:27:00;11.50;;;8.50;;
44452;SDS011;30155;52.164;21.236;2023-02-28T09:31:56;18.60;;;9.50;;
44452;SDS011;30155;52.164;21.236;2023-02-28T09:36:50;15.90;;;8.40;;
44452;SDS011;30155;52.164;21.236;2023-02-28T09:41:47;8.40;;;7.20;;
44452;SDS011;30155;52.164;21.236;2023-02-28T09:46:44;29.00;;;10.60;;
44452;SDS011;30155;52.164;21.236;2023-02-28T09:51:50;11.30;;;8.50;;
44452;SDS011;30155;52.164;21.236;2023-02-28T09:56:51;10.80;;;9.00;;
44452;SDS011;30155;52.164;21.236;2023-02-28T10:06:48;9.40;;;7.80;;
44452;SDS011;30155;52.164;21.236;2023-02-28T10:11:43;10.50;;;8.80;;
44452;SDS011;30155;52.164;21.236;2023-02-28T10:16:49;10.80;;;8.30;;
44452;SDS011;30155;52.164;21.236;2023-02-28T10:21:57;13.70;;;9.30;;
44452;SDS011;30155;52.164;21.236;2023-02-28T10:27:06;10.30;;;8.40;;
44452;SDS011;30155;52.164;21.236;2023-02-28T10:32:15;11.30;;;10.00;;
44452;SDS011;30155;52.164;21.236;2023-02-28T10:37:11;12.50;;;9.60;;
44452;SDS011;30155;52.164;21.236;2023-02-28T10:47:17;13.40;;;10.00;;
44452;SDS011;30155;52.164;21.236;2023-02-28T10:52:12;11.90;;;9.50;;
44452;SDS011;30155;52.164;21.236;2023-02-28T10:57:07;13.10;;;9.80;;
44452;SDS011;30155;52.164;21.236;2023-02-28T11:02:29;10.20;;;8.40;;
44452;SDS011;30155;52.164;21.236;2023-02-28T11:07:27;10.10;;;8.30;;
44452;SDS011;30155;52.164;21.236;2023-02-28T11:12:34;10.40;;;8.20;;
44452;SDS011;30155;52.164;21.236;2023-02-28T11:17:42;9.70;;;8.20;;
44452;SDS011;30155;52.164;21.236;2023-02-28T11:22:36;11.40;;;9.40;;
44452;SDS011;30155;52.164;21.236;2023-02-28T11:32:29;9.60;;;8.50;;
44452;SDS011;30155;52.164;21.236;2023-02-28T11:37:22;10.20;;;8.80;;
44452;SDS011;30155;52.164;21.236;2023-02-28T12:29:29;10.20;;;9.10;;
44452;SDS011;30155;52.164;21.236;2023-02-28T12:34:46;11.20;;;10.00;;
44452;SDS011;30155;52.164;21.236;2023-02-28T12:39:44;13.30;;;9.80;;
44452;SDS011;30155;52.164;21.236;2023-02-28T12:44:44;14.80;;;11.00;;
44452;SDS011;30155;52.164;21.236;2023-02-28T12:49:58;12.90;;;10.20;;
44452;SDS011;30155;52.164;21.236;2023-02-28T12:55:05;13.70;;;10.10;;
44452;SDS011;30155;52.164;21.236;2023-02-28T13:00:19;11.30;;;10.10;;
44452;SDS011;30155;52.164;21.236;2023-02-28T13:10:59;11.60;;;10.40;;
44452;SDS011;30155;52.164;21.236;2023-02-28T13:16:03;11.90;;;10.20;;
44452;SDS011;30155;52.164;21.236;2023-02-28T13:20:59;12.50;;;11.10;;
44452;SDS011;30155;52.164;21.236;2023-02-28T13:25:53;13.40;;;11.10;;
44452;SDS011;30155;52.164;21.236;2023-02-28T13:35:47;16.90;;;11.00;;
44452;SDS011;30155;52.164;21.236;2023-02-28T13:40:39;11.80;;;9.90;;
44452;SDS011;30155;52.164;21.236;2023-02-28T13:45:32;17.70;;;10.90;;
44452;SDS011;30155;52.164;21.236;2023-02-28T13:50:33;14.70;;;10.40;;
44452;SDS011;30155;52.164;21.236;2023-02-28T14:05:44;12.60;;;9.20;;
44452;SDS011;30155;52.164;21.236;2023-02-28T14:10:41;13.60;;;9.30;;
44452;SDS011;30155;52.164;21.236;2023-02-28T14:20:36;14.80;;;10.40;;
44452;SDS011;30155;52.164;21.236;2023-02-28T14:46:04;13.80;;;11.10;;
44452;SDS011;30155;52.164;21.236;2023-02-28T14:50:59;12.80;;;9.50;;
44452;SDS011;30155;52.164;21.236;2023-02-28T14:55:54;15.80;;;11.10;;
44452;SDS011;30155;52.164;21.236;2023-02-28T15:00:48;19.90;;;12.50;;
44452;SDS011;30155;52.164;21.236;2023-02-28T15:05:47;14.10;;;9.80;;
44452;SDS011;30155;52.164;21.236;2023-02-28T15:10:45;14.10;;;10.10;;
44452;SDS011;30155;52.164;21.236;2023-02-28T15:20:55;11.30;;;9.50;;
44452;SDS011;30155;52.164;21.236;2023-02-28T15:25:51;19.30;;;12.10;;
44452;SDS011;30155;52.164;21.236;2023-02-28T15:30:53;13.80;;;9.80;;
44452;SDS011;30155;52.164;21.236;2023-02-28T15:41:24;14.00;;;8.80;;
44452;SDS011;30155;52.164;21.236;2023-02-28T15:46:19;17.90;;;9.50;;
44452;SDS011;30155;52.164;21.236;2023-02-28T15:51:19;11.70;;;8.50;;
44452;SDS011;30155;52.164;21.236;2023-02-28T16:07:03;13.90;;;7.60;;
44452;SDS011;30155;52.164;21.236;2023-02-28T16:12:00;23.10;;;9.80;;
44452;SDS011;30155;52.164;21.236;2023-02-28T16:16:56;19.80;;;9.20;;
44452;SDS011;30155;52.164;21.236;2023-02-28T16:21:55;13.30;;;9.10;;
44452;SDS011;30155;52.164;21.236;2023-02-28T16:26:48;8.10;;;6.70;;
44452;SDS011;30155;52.164;21.236;2023-02-28T16:31:44;13.80;;;8.50;;
44452;SDS011;30155;52.164;21.236;2023-02-28T16:36:36;12.70;;;9.90;;
44452;SDS011;30155;52.164;21.236;2023-02-28T16:41:29;11.70;;;8.10;;
44452;SDS011;30155;52.164;21.236;2023-02-28T16:46:23;13.70;;;8.30;;
44452;SDS011;30155;52.164;21.236;2023-02-28T16:51:17;15.10;;;8.80;;
44452;SDS011;30155;52.164;21.236;2023-02-28T16:56:15;10.80;;;8.10;;
44452;SDS011;30155;52.164;21.236;2023-02-28T17:01:10;15.30;;;9.40;;
44452;SDS011;30155;52.164;21.236;2023-02-28T17:06:04;18.90;;;12.60;;
44452;SDS011;30155;52.164;21.236;2023-02-28T17:11:00;23.60;;;12.40;;
44452;SDS011;30155;52.164;21.236;2023-02-28T17:15:53;15.70;;;9.00;;
44452;SDS011;30155;52.164;21.236;2023-02-28T17:20:47;19.60;;;11.10;;
44452;SDS011;30155;52.164;21.236;2023-02-28T17:25:40;18.10;;;10.70;;
44452;SDS011;30155;52.164;21.236;2023-02-28T17:30:47;14.40;;;9.40;;
44452;SDS011;30155;52.164;21.236;2023-02-28T17:35:41;22.40;;;12.70;;
44452;SDS011;30155;52.164;21.236;2023-02-28T17:40:34;13.60;;;10.60;;
44452;SDS011;30155;52.164;21.236;2023-02-28T17:45:27;21.20;;;12.10;;
44452;SDS011;30155;52.164;21.236;2023-02-28T17:50:20;45.30;;;22.30;;
44452;SDS011;30155;52.164;21.236;2023-02-28T17:55:14;37.40;;;19.20;;
44452;SDS011;30155;52.164;21.236;2023-02-28T18:00:07;38.60;;;19.90;;
44452;SDS011;30155;52.164;21.236;2023-02-28T18:05:08;36.40;;;19.70;;
44452;SDS011;30155;52.164;21.236;2023-02-28T18:10:02;36.10;;;18.50;;
44452;SDS011;30155;52.164;21.236;2023-02-28T18:14:55;27.30;;;17.30;;
44452;SDS011;30155;52.164;21.236;2023-02-28T18:19:48;26.80;;;16.00;;
44452;SDS011;30155;52.164;21.236;2023-02-28T18:24:41;22.20;;;13.80;;
44452;SDS011;30155;52.164;21.236;2023-02-28T18:29:34;20.20;;;12.80;;
44452;SDS011;30155;52.164;21.236;2023-02-28T18:34:30;26.50;;;15.00;;
44452;SDS011;30155;52.164;21.236;2023-02-28T18:39:26;35.10;;;18.60;;
44452;SDS011;30155;52.164;21.236;2023-02-28T18:44:22;37.60;;;20.60;;
44452;SDS011;30155;52.164;21.236;2023-02-28T18:49:15;31.10;;;19.00;;
44452;SDS011;30155;52.164;21.236;2023-02-28T18:54:09;32.80;;;20.90;;
44452;SDS011;30155;52.164;21.236;2023-02-28T18:59:02;34.20;;;20.70;;
44452;SDS011;30155;52.164;21.236;2023-02-28T19:03:55;34.30;;;20.70;;
44452;SDS011;30155;52.164;21.236;2023-02-28T19:08:52;32.80;;;19.40;;
44452;SDS011;30155;52.164;21.236;2023-02-28T19:13:46;33.40;;;20.90;;
44452;SDS011;30155;52.164;21.236;2023-02-28T19:18:40;30.60;;;17.70;;
44452;SDS011;30155;52.164;21.236;2023-02-28T19:23:32;32.10;;;21.00;;
44452;SDS011;30155;52.164;21.236;2023-02-28T19:28:29;32.70;;;20.80;;
44452;SDS011;30155;52.164;21.236;2023-02-28T19:33:21;64.90;;;37.40;;
44452;SDS011;30155;52.164;21.236;2023-02-28T19:38:14;38.10;;;21.60;;
44452;SDS011;30155;52.164;21.236;2023-02-28T19:43:09;52.50;;;27.50;;
44452;SDS011;30155;52.164;21.236;2023-02-28T19:48:02;57.90;;;31.00;;
44452;SDS011;30155;52.164;21.236;2023-02-28T19:52:56;52.40;;;28.70;;
44452;SDS011;30155;52.164;21.236;2023-02-28T19:57:51;63.90;;;33.40;;
44452;SDS011;30155;52.164;21.236;2023-02-28T20:02:43;66.60;;;37.20;;
44452;SDS011;30155;52.164;21.236;2023-02-28T20:07:36;70.70;;;38.80;;
44452;SDS011;30155;52.164;21.236;2023-02-28T20:12:29;62.30;;;33.50;;
44452;SDS011;30155;52.164;21.236;2023-02-28T20:17:21;57.00;;;32.20;;
44452;SDS011;30155;52.164;21.236;2023-02-28T20:22:14;43.10;;;25.20;;
44452;SDS011;30155;52.164;21.236;2023-02-28T20:27:08;45.50;;;25.50;;
44452;SDS011;30155;52.164;21.236;2023-02-28T20:32:01;45.40;;;26.50;;
44452;SDS011;30155;52.164;21.236;2023-02-28T20:36:54;66.00;;;36.00;;
44452;SDS011;30155;52.164;21.236;2023-02-28T20:41:49;55.90;;;29.90;;
44452;SDS011;30155;52.164;21.236;2023-02-28T20:46:41;61.60;;;32.10;;
44452;SDS011;30155;52.164;21.236;2023-02-28T20:51:34;59.70;;;33.60;;
44452;SDS011;30155;52.164;21.236;2023-02-28T20:56:30;93.40;;;44.60;;
44452;SDS011;30155;52.164;21.236;2023-02-28T21:01:24;81.30;;;40.20;;
44452;SDS011;30155;52.164;21.236;2023-02-28T21:06:20;68.90;;;36.30;;
44452;SDS011;30155;52.164;21.236;2023-02-28T21:11:19;60.50;;;32.80;;
44452;SDS011;30155;52.164;21.236;2023-02-28T21:16:15;51.50;;;30.60;;
44452;SDS011;30155;52.164;21.236;2023-02-28T21:21:10;46.70;;;26.50;;
44452;SDS011;30155;52.164;21.236;2023-02-28T21:26:06;53.90;;;28.70;;
44452;SDS011;30155;52.164;21.236;2023-02-28T21:31:05;37.80;;;23.20;;
44452;SDS011;30155;52.164;21.236;2023-02-28T21:36:03;68.00;;;34.10;;
44452;SDS011;30155;52.164;21.236;2023-02-28T21:41:17;65.40;;;35.40;;
44452;SDS011;30155;52.164;21.236;2023-02-28T21:46:12;66.70;;;34.70;;
44452;SDS011;30155;52.164;21.236;2023-02-28T21:51:14;59.90;;;33.80;;
44452;SDS011;30155;52.164;21.236;2023-02-28T21:56:13;60.20;;;33.70;;
44452;SDS011;30155;52.164;21.236;2023-02-28T22:01:12;72.80;;;36.40;;
44452;SDS011;30155;52.164;21.236;2023-02-28T22:06:11;60.50;;;33.00;;
44452;SDS011;30155;52.164;21.236;2023-02-28T22:11:06;48.20;;;28.30;;
44452;SDS011;30155;52.164;21.236;2023-02-28T22:16:00;62.30;;;31.50;;
44452;SDS011;30155;52.164;21.236;2023-02-28T22:20:55;53.20;;;31.70;;
44452;SDS011;30155;52.164;21.236;2023-02-28T22:25:47;46.70;;;27.90;;
44452;SDS011;30155;52.164;21.236;2023-02-28T22:30:40;50.20;;;28.00;;
44452;SDS011;30155;52.164;21.236;2023-02-28T22:35:33;75.20;;;40.40;;
44452;SDS011;30155;52.164;21.236;2023-02-28T22:40:26;77.60;;;39.00;;
44452;SDS011;30155;52.164;21.236;2023-02-28T22:45:18;76.60;;;43.60;;
44452;SDS011;30155;52.164;21.236;2023-02-28T22:50:11;82.40;;;43.50;;
44452;SDS011;30155;52.164;21.236;2023-02-28T22:55:04;89.00;;;48.10;;
44452;SDS011;30155;52.164;21.236;2023-02-28T22:59:57;91.00;;;45.40;;
44452;SDS011;30155;52.164;21.236;2023-02-28T23:04:50;92.10;;;48.80;;
44452;SDS011;30155;52.164;21.236;2023-02-28T23:09:43;85.50;;;44.80;;
44452;SDS011;30155;52.164;21.236;2023-02-28T23:14:35;79.20;;;42.30;;
44452;SDS011;30155;52.164;21.236;2023-02-28T23:19:29;76.60;;;42.70;;
44452;SDS011;30155;52.164;21.236;2023-02-28T23:24:23;85.20;;;44.90;;
44452;SDS011;30155;52.164;21.236;2023-02-28T23:29:18;88.00;;;46.70;;
44452;SDS011;30155;52.164;21.236;2023-02-28T23:34:13;73.80;;;42.20;;
44452;SDS011;30155;52.164;21.236;2023-02-28T23:39:07;84.50;;;41.00;;
44452;SDS011;30155;52.164;21.236;2023-02-28T23:44:00;83.00;;;45.90;;
44452;SDS011;30155;52.164;21.236;2023-02-28T23:48:53;96.00;;;48.10;;
44452;SDS011;30155;52.164;21.236;2023-02-28T23:53:47;89.00;;;44.70;;
44452;SDS011;30155;52.164;21.236;2023-02-28T23:58:41;94.10;;;47.40;;
